GHA244 DGAA-FKKD
Flight info
| Callsign | GHA244 |
|---|---|
| Flight time | 1h 42m |
| Altitude | 35000 |
| Route | EREKA1D EREKA UL433 LAG UQ300 ILBAS UR854 KOKAM KOKAM1D |
| Aircraft | MD83/M-SDFGIJ1RWY/S |
Departure
| Time | 2026-05-07 17:19 |
|---|---|
| Airport | Kotoka International Airport (DGAA) |
Arrival
| Time | 2026-05-07 19:02 |
|---|---|
| Airport | Douala International Airport (FKKD) |
| Time | Latitude | Longitude | Altitude | Speed | Heading |
|---|---|---|---|---|---|
| 2026-05-07 17:10 | 5.60238 | -0.17048 | 212 ft | 0 kts | 22° |
| 2026-05-07 17:11 | 5.60244 | -0.17045 | 212 ft | 4 kts | 22° |
| 2026-05-07 17:11 | 5.60297 | -0.17023 | 215 ft | 13 kts | 22° |
| 2026-05-07 17:12 | 5.60397 | -0.16982 | 218 ft | 16 kts | 22° |
| 2026-05-07 17:12 | 5.60502 | -0.16939 | 219 ft | 16 kts | 22° |
| 2026-05-07 17:12 | 5.60611 | -0.16893 | 221 ft | 17 kts | 22° |
| 2026-05-07 17:12 | 5.60722 | -0.16848 | 222 ft | 18 kts | 22° |
| 2026-05-07 17:13 | 5.60836 | -0.16801 | 225 ft | 18 kts | 22° |
| 2026-05-07 17:13 | 5.60949 | -0.16754 | 224 ft | 18 kts | 22° |
| 2026-05-07 17:13 | 5.61087 | -0.16697 | 223 ft | 23 kts | 22° |
| 2026-05-07 17:13 | 5.61236 | -0.16635 | 221 ft | 24 kts | 22° |
| 2026-05-07 17:14 | 5.61389 | -0.16572 | 221 ft | 24 kts | 22° |
| 2026-05-07 17:14 | 5.61531 | -0.16514 | 217 ft | 19 kts | 21° |
| 2026-05-07 17:14 | 5.61623 | -0.16448 | 219 ft | 12 kts | 72° |
| 2026-05-07 17:14 | 5.61624 | -0.16441 | 214 ft | 0 kts | 85° |
| 2026-05-07 17:17 | 5.61616 | -0.16405 | 214 ft | 12 kts | 114° |
| 2026-05-07 17:17 | 5.61546 | -0.16342 | 222 ft | 14 kts | 158° |
| 2026-05-07 17:17 | 5.61449 | -0.16343 | 224 ft | 13 kts | 199° |
| 2026-05-07 17:17 | 5.61417 | -0.16355 | 223 ft | 0 kts | 200° |
| 2026-05-07 17:18 | 5.61416 | -0.16355 | 223 ft | 0 kts | 200° |
| 2026-05-07 17:18 | 5.61384 | -0.16367 | 222 ft | 13 kts | 201° |
| 2026-05-07 17:18 | 5.61175 | -0.16454 | 221 ft | 58 kts | 202° |
| 2026-05-07 17:18 | 5.60600 | -0.16691 | 223 ft | 119 kts | 202° |
| 2026-05-07 17:19 | 5.59677 | -0.17092 | 304 ft | 162 kts | 204° |
| 2026-05-07 17:19 | 5.58658 | -0.17586 | 1004 ft | 164 kts | 202° |
| 2026-05-07 17:19 | 5.57624 | -0.18021 | 1752 ft | 165 kts | 201° |
| 2026-05-07 17:19 | 5.56476 | -0.18195 | 2336 ft | 173 kts | 174° |
| 2026-05-07 17:20 | 5.55301 | -0.17919 | 2967 ft | 177 kts | 163° |
| 2026-05-07 17:20 | 5.54150 | -0.17369 | 3489 ft | 190 kts | 146° |
| 2026-05-07 17:20 | 5.53254 | -0.16348 | 3977 ft | 204 kts | 113° |
| 2026-05-07 17:20 | 5.52916 | -0.14936 | 4552 ft | 212 kts | 100° |
| 2026-05-07 17:21 | 5.52662 | -0.13446 | 5035 ft | 222 kts | 100° |
| 2026-05-07 17:21 | 5.52410 | -0.11872 | 5526 ft | 233 kts | 97° |
| 2026-05-07 17:21 | 5.52511 | -0.10229 | 6017 ft | 243 kts | 70° |
| 2026-05-07 17:21 | 5.53223 | -0.08655 | 6487 ft | 253 kts | 64° |
| 2026-05-07 17:22 | 5.54047 | -0.07046 | 6952 ft | 265 kts | 63° |
| 2026-05-07 17:22 | 5.54907 | -0.05375 | 7446 ft | 274 kts | 63° |
| 2026-05-07 17:22 | 5.55796 | -0.03683 | 8169 ft | 272 kts | 63° |
| 2026-05-07 17:22 | 5.56684 | -0.02018 | 8927 ft | 269 kts | 64° |
| 2026-05-07 17:23 | 5.57560 | -0.00364 | 9672 ft | 267 kts | 64° |
| 2026-05-07 17:23 | 5.58423 | 0.01292 | 10195 ft | 272 kts | 65° |
| 2026-05-07 17:23 | 5.59316 | 0.03045 | 10345 ft | 291 kts | 65° |
| 2026-05-07 17:23 | 5.60239 | 0.04884 | 10509 ft | 307 kts | 65° |
| 2026-05-07 17:24 | 5.61219 | 0.06849 | 10689 ft | 323 kts | 65° |
| 2026-05-07 17:24 | 5.62248 | 0.08917 | 10846 ft | 338 kts | 65° |
| 2026-05-07 17:24 | 5.63329 | 0.11089 | 11167 ft | 348 kts | 65° |
| 2026-05-07 17:24 | 5.64419 | 0.13273 | 11702 ft | 350 kts | 65° |
| 2026-05-07 17:25 | 5.65499 | 0.15432 | 12292 ft | 351 kts | 65° |
| 2026-05-07 17:25 | 5.66599 | 0.17625 | 12832 ft | 353 kts | 66° |
| 2026-05-07 17:25 | 5.67723 | 0.19870 | 13343 ft | 357 kts | 66° |
| 2026-05-07 17:25 | 5.68841 | 0.22106 | 13874 ft | 360 kts | 66° |
| 2026-05-07 17:26 | 5.69955 | 0.24336 | 14338 ft | 364 kts | 66° |
| 2026-05-07 17:26 | 5.71095 | 0.26623 | 14759 ft | 369 kts | 65° |
| 2026-05-07 17:26 | 5.72254 | 0.28945 | 15199 ft | 374 kts | 65° |
| 2026-05-07 17:26 | 5.73429 | 0.31297 | 15710 ft | 378 kts | 65° |
| 2026-05-07 17:27 | 5.74637 | 0.33660 | 16192 ft | 383 kts | 64° |
| 2026-05-07 17:27 | 5.75903 | 0.36041 | 16685 ft | 388 kts | 63° |
| 2026-05-07 17:27 | 5.77200 | 0.38437 | 17191 ft | 392 kts | 63° |
| 2026-05-07 17:27 | 5.78518 | 0.40859 | 17644 ft | 398 kts | 62° |
| 2026-05-07 17:28 | 5.79852 | 0.43315 | 18126 ft | 402 kts | 62° |
| 2026-05-07 17:28 | 5.81195 | 0.45795 | 18583 ft | 406 kts | 63° |
| 2026-05-07 17:28 | 5.82546 | 0.48301 | 19050 ft | 409 kts | 62° |
| 2026-05-07 17:28 | 5.83901 | 0.50821 | 19497 ft | 412 kts | 63° |
| 2026-05-07 17:29 | 5.85266 | 0.53367 | 19943 ft | 415 kts | 63° |
| 2026-05-07 17:29 | 5.86621 | 0.55899 | 20375 ft | 418 kts | 63° |
| 2026-05-07 17:29 | 5.88003 | 0.58482 | 20792 ft | 422 kts | 63° |
| 2026-05-07 17:29 | 5.89398 | 0.61089 | 21198 ft | 425 kts | 63° |
| 2026-05-07 17:30 | 5.90804 | 0.63716 | 21633 ft | 428 kts | 63° |
| 2026-05-07 17:30 | 5.92222 | 0.66364 | 22043 ft | 431 kts | 63° |
| 2026-05-07 17:30 | 5.93647 | 0.69026 | 22464 ft | 434 kts | 63° |
| 2026-05-07 17:30 | 5.95082 | 0.71708 | 22852 ft | 438 kts | 63° |
| 2026-05-07 17:31 | 5.96531 | 0.74417 | 23244 ft | 441 kts | 63° |
| 2026-05-07 17:31 | 5.97991 | 0.77144 | 23590 ft | 444 kts | 63° |
| 2026-05-07 17:31 | 5.99343 | 0.79934 | 23936 ft | 445 kts | 68° |
| 2026-05-07 17:31 | 6.00468 | 0.82828 | 24293 ft | 446 kts | 71° |
| 2026-05-07 17:32 | 6.01524 | 0.85775 | 24632 ft | 449 kts | 71° |
| 2026-05-07 17:32 | 6.02572 | 0.88734 | 24960 ft | 451 kts | 71° |
| 2026-05-07 17:32 | 6.03634 | 0.91701 | 25301 ft | 453 kts | 71° |
| 2026-05-07 17:32 | 6.04350 | 0.93671 | 25541 ft | 454 kts | 70° |
| 2026-05-07 17:33 | 6.05825 | 0.97665 | 25957 ft | 457 kts | 70° |
| 2026-05-07 17:33 | 6.06958 | 1.00660 | 26270 ft | 460 kts | 69° |
| 2026-05-07 17:33 | 6.08170 | 1.03592 | 26633 ft | 461 kts | 67° |
| 2026-05-07 17:33 | 6.09468 | 1.06534 | 27095 ft | 460 kts | 66° |
| 2026-05-07 17:34 | 6.10780 | 1.09451 | 27624 ft | 457 kts | 66° |
| 2026-05-07 17:34 | 6.12081 | 1.12354 | 28142 ft | 454 kts | 66° |
| 2026-05-07 17:34 | 6.13365 | 1.15252 | 28570 ft | 454 kts | 67° |
| 2026-05-07 17:34 | 6.14645 | 1.18173 | 28732 ft | 459 kts | 67° |
| 2026-05-07 17:35 | 6.15918 | 1.21106 | 29283 ft | 455 kts | 67° |
| 2026-05-07 17:35 | 6.17171 | 1.24004 | 29928 ft | 449 kts | 67° |
| 2026-05-07 17:35 | 6.18355 | 1.26891 | 30392 ft | 445 kts | 74° |
| 2026-05-07 17:35 | 6.19047 | 1.29883 | 30686 ft | 445 kts | 81° |
| 2026-05-07 17:36 | 6.19520 | 1.32961 | 30929 ft | 447 kts | 82° |
| 2026-05-07 17:36 | 6.19951 | 1.36060 | 31222 ft | 447 kts | 82° |
| 2026-05-07 17:36 | 6.20383 | 1.39158 | 31571 ft | 446 kts | 82° |
| 2026-05-07 17:36 | 6.20827 | 1.42240 | 31911 ft | 445 kts | 82° |
| 2026-05-07 17:37 | 6.21291 | 1.45317 | 32234 ft | 444 kts | 81° |
| 2026-05-07 17:37 | 6.21772 | 1.48380 | 32556 ft | 444 kts | 81° |
| 2026-05-07 17:37 | 6.22265 | 1.51446 | 32829 ft | 444 kts | 81° |
| 2026-05-07 17:37 | 6.22763 | 1.54513 | 33085 ft | 444 kts | 81° |
| 2026-05-07 17:38 | 6.23261 | 1.57583 | 33347 ft | 444 kts | 81° |
| 2026-05-07 17:38 | 6.23750 | 1.60614 | 33594 ft | 444 kts | 81° |
| 2026-05-07 17:38 | 6.24244 | 1.63680 | 33846 ft | 445 kts | 81° |
| 2026-05-07 17:38 | 6.24734 | 1.66744 | 34083 ft | 444 kts | 81° |
| 2026-05-07 17:39 | 6.25222 | 1.69807 | 34343 ft | 443 kts | 81° |
| 2026-05-07 17:39 | 6.25705 | 1.72857 | 34590 ft | 442 kts | 81° |
| 2026-05-07 17:39 | 6.26190 | 1.75911 | 34713 ft | 444 kts | 81° |
| 2026-05-07 17:39 | 6.26676 | 1.78973 | 34781 ft | 444 kts | 81° |
| 2026-05-07 17:40 | 6.27642 | 1.85081 | 34825 ft | 441 kts | 81° |
| 2026-05-07 17:40 | 6.28447 | 1.90153 | 34836 ft | 438 kts | 81° |
| 2026-05-07 17:41 | 6.29404 | 1.96177 | 34841 ft | 434 kts | 81° |
| 2026-05-07 17:41 | 6.30353 | 2.02188 | 34844 ft | 436 kts | 81° |
| 2026-05-07 17:42 | 6.31305 | 2.08214 | 34844 ft | 437 kts | 81° |
| 2026-05-07 17:42 | 6.32255 | 2.14220 | 34846 ft | 438 kts | 82° |
| 2026-05-07 17:43 | 6.33211 | 2.20270 | 34852 ft | 437 kts | 82° |
| 2026-05-07 17:43 | 6.34160 | 2.26306 | 34857 ft | 436 kts | 82° |
| 2026-05-07 17:44 | 6.35104 | 2.32315 | 34858 ft | 436 kts | 82° |
| 2026-05-07 17:44 | 6.36057 | 2.38348 | 34856 ft | 437 kts | 81° |
| 2026-05-07 17:45 | 6.37814 | 2.44200 | 34856 ft | 438 kts | 70° |
| 2026-05-07 17:45 | 6.40016 | 2.49920 | 34854 ft | 439 kts | 70° |
| 2026-05-07 17:46 | 6.42188 | 2.55665 | 34852 ft | 440 kts | 70° |
| 2026-05-07 17:46 | 6.44294 | 2.61438 | 34848 ft | 439 kts | 71° |
| 2026-05-07 17:47 | 6.46356 | 2.67166 | 34846 ft | 437 kts | 71° |
| 2026-05-07 17:47 | 6.48432 | 2.72919 | 34847 ft | 437 kts | 71° |
| 2026-05-07 17:48 | 6.50534 | 2.78667 | 34850 ft | 438 kts | 70° |
| 2026-05-07 17:48 | 6.52691 | 2.84406 | 34848 ft | 439 kts | 70° |
| 2026-05-07 17:49 | 6.54852 | 2.90150 | 34849 ft | 439 kts | 70° |
| 2026-05-07 17:49 | 6.56990 | 2.95859 | 34847 ft | 439 kts | 70° |
| 2026-05-07 17:50 | 6.59140 | 3.01615 | 34848 ft | 440 kts | 70° |
| 2026-05-07 17:50 | 6.61289 | 3.07372 | 34846 ft | 439 kts | 70° |
| 2026-05-07 17:51 | 6.63437 | 3.13118 | 34848 ft | 437 kts | 70° |
| 2026-05-07 17:51 | 6.65574 | 3.18842 | 34848 ft | 436 kts | 70° |
| 2026-05-07 17:52 | 6.67708 | 3.24563 | 34849 ft | 437 kts | 70° |
| 2026-05-07 17:52 | 6.69818 | 3.30295 | 34844 ft | 437 kts | 75° |
| 2026-05-07 17:53 | 6.70247 | 3.33300 | 34857 ft | 434 kts | 93° |
| 2026-05-07 17:53 | 6.69763 | 3.36241 | 34864 ft | 434 kts | 106° |
| 2026-05-07 17:53 | 6.67807 | 3.41998 | 34843 ft | 435 kts | 110° |
| 2026-05-07 17:54 | 6.65718 | 3.47714 | 34844 ft | 435 kts | 110° |
| 2026-05-07 17:54 | 6.63694 | 3.53463 | 34847 ft | 436 kts | 109° |
| 2026-05-07 17:55 | 6.61743 | 3.59239 | 34847 ft | 436 kts | 108° |
| 2026-05-07 17:55 | 6.59805 | 3.65024 | 34845 ft | 436 kts | 109° |
| 2026-05-07 17:56 | 6.57855 | 3.70784 | 34845 ft | 434 kts | 108° |
| 2026-05-07 17:56 | 6.55920 | 3.76531 | 34846 ft | 434 kts | 109° |
| 2026-05-07 17:57 | 6.54301 | 3.81306 | 34847 ft | 434 kts | 109° |
| 2026-05-07 17:57 | 6.52020 | 3.88024 | 34849 ft | 435 kts | 109° |
| 2026-05-07 17:58 | 6.50075 | 3.93747 | 34844 ft | 435 kts | 109° |
| 2026-05-07 17:58 | 6.48120 | 3.99505 | 34846 ft | 436 kts | 109° |
| 2026-05-07 17:59 | 6.46162 | 4.05280 | 34844 ft | 436 kts | 109° |
| 2026-05-07 17:59 | 6.44198 | 4.11063 | 34845 ft | 437 kts | 108° |
| 2026-05-07 18:00 | 6.42226 | 4.16854 | 34844 ft | 437 kts | 109° |
| 2026-05-07 18:00 | 6.40251 | 4.22637 | 34848 ft | 438 kts | 109° |
| 2026-05-07 18:01 | 6.38282 | 4.28426 | 34848 ft | 437 kts | 109° |
| 2026-05-07 18:01 | 6.36322 | 4.34198 | 34844 ft | 435 kts | 108° |
| 2026-05-07 18:02 | 6.33381 | 4.42797 | 34842 ft | 435 kts | 108° |
| 2026-05-07 18:03 | 6.31404 | 4.48553 | 34845 ft | 435 kts | 108° |
| 2026-05-07 18:03 | 6.29433 | 4.54302 | 34846 ft | 435 kts | 108° |
| 2026-05-07 18:04 | 6.27458 | 4.60067 | 34847 ft | 435 kts | 108° |
| 2026-05-07 18:04 | 6.25488 | 4.65819 | 34842 ft | 435 kts | 108° |
| 2026-05-07 18:05 | 6.23518 | 4.71570 | 34846 ft | 434 kts | 108° |
| 2026-05-07 18:05 | 6.21553 | 4.77302 | 34844 ft | 433 kts | 108° |
| 2026-05-07 18:06 | 6.19587 | 4.83030 | 34845 ft | 434 kts | 108° |
| 2026-05-07 18:06 | 6.17621 | 4.88730 | 34845 ft | 435 kts | 108° |
| 2026-05-07 18:07 | 6.15628 | 4.94514 | 34845 ft | 435 kts | 108° |
| 2026-05-07 18:07 | 6.13644 | 5.00274 | 34846 ft | 436 kts | 108° |
| 2026-05-07 18:08 | 6.11660 | 5.06033 | 34846 ft | 437 kts | 108° |
| 2026-05-07 18:08 | 6.09682 | 5.11775 | 34845 ft | 437 kts | 108° |
| 2026-05-07 18:09 | 6.07696 | 5.17537 | 34846 ft | 435 kts | 108° |
| 2026-05-07 18:09 | 6.05714 | 5.23286 | 34846 ft | 435 kts | 108° |
| 2026-05-07 18:10 | 6.03730 | 5.29029 | 34845 ft | 436 kts | 108° |
| 2026-05-07 18:10 | 6.01753 | 5.34746 | 34847 ft | 437 kts | 108° |
| 2026-05-07 18:11 | 5.99757 | 5.40520 | 34848 ft | 437 kts | 108° |
| 2026-05-07 18:11 | 5.97763 | 5.46291 | 34848 ft | 438 kts | 108° |
| 2026-05-07 18:12 | 5.95764 | 5.52076 | 34851 ft | 437 kts | 108° |
| 2026-05-07 18:12 | 5.93775 | 5.57829 | 34849 ft | 435 kts | 108° |
| 2026-05-07 18:13 | 5.91789 | 5.63574 | 34853 ft | 436 kts | 108° |
| 2026-05-07 18:13 | 5.89792 | 5.69336 | 34852 ft | 437 kts | 108° |
| 2026-05-07 18:14 | 5.87795 | 5.75097 | 34852 ft | 437 kts | 108° |
| 2026-05-07 18:14 | 5.85798 | 5.80859 | 34853 ft | 437 kts | 108° |
| 2026-05-07 18:15 | 5.83798 | 5.86629 | 34853 ft | 438 kts | 108° |
| 2026-05-07 18:15 | 5.81797 | 5.92403 | 34853 ft | 437 kts | 108° |
| 2026-05-07 18:16 | 5.79791 | 5.98191 | 34858 ft | 435 kts | 108° |
| 2026-05-07 18:16 | 5.77803 | 6.03921 | 34857 ft | 435 kts | 108° |
| 2026-05-07 18:17 | 5.75805 | 6.09660 | 34857 ft | 436 kts | 107° |
| 2026-05-07 18:17 | 5.73811 | 6.15412 | 34860 ft | 436 kts | 107° |
| 2026-05-07 18:18 | 5.71811 | 6.21172 | 34859 ft | 437 kts | 107° |
| 2026-05-07 18:18 | 5.69799 | 6.26928 | 34860 ft | 437 kts | 107° |
| 2026-05-07 18:19 | 5.67800 | 6.32646 | 34859 ft | 435 kts | 107° |
| 2026-05-07 18:19 | 5.65803 | 6.38371 | 34861 ft | 434 kts | 107° |
| 2026-05-07 18:20 | 5.63808 | 6.44098 | 34861 ft | 435 kts | 107° |
| 2026-05-07 18:20 | 5.61806 | 6.49844 | 34860 ft | 436 kts | 107° |
| 2026-05-07 18:21 | 5.59799 | 6.55594 | 34863 ft | 437 kts | 107° |
| 2026-05-07 18:21 | 5.57784 | 6.61349 | 34860 ft | 437 kts | 107° |
| 2026-05-07 18:22 | 5.55770 | 6.67106 | 34859 ft | 436 kts | 107° |
| 2026-05-07 18:22 | 5.54102 | 6.71875 | 34862 ft | 435 kts | 107° |
| 2026-05-07 18:23 | 5.52097 | 6.77602 | 34858 ft | 435 kts | 107° |
| 2026-05-07 18:23 | 5.50089 | 6.83343 | 34858 ft | 436 kts | 107° |
| 2026-05-07 18:24 | 5.48077 | 6.89092 | 34857 ft | 436 kts | 107° |
| 2026-05-07 18:24 | 5.46062 | 6.94844 | 34859 ft | 437 kts | 106° |
| 2026-05-07 18:25 | 5.44043 | 7.00604 | 34859 ft | 437 kts | 107° |
| 2026-05-07 18:25 | 5.42024 | 7.06357 | 34856 ft | 436 kts | 106° |
| 2026-05-07 18:26 | 5.40029 | 7.12046 | 34856 ft | 434 kts | 106° |
| 2026-05-07 18:26 | 5.38019 | 7.17767 | 34856 ft | 434 kts | 106° |
| 2026-05-07 18:27 | 5.36006 | 7.23488 | 34855 ft | 435 kts | 106° |
| 2026-05-07 18:27 | 5.33990 | 7.29216 | 34855 ft | 436 kts | 106° |
| 2026-05-07 18:28 | 5.31969 | 7.34953 | 34854 ft | 436 kts | 106° |
| 2026-05-07 18:28 | 5.29947 | 7.40693 | 34859 ft | 436 kts | 106° |
| 2026-05-07 18:29 | 5.27924 | 7.46437 | 34861 ft | 437 kts | 107° |
| 2026-05-07 18:29 | 5.25903 | 7.52174 | 34863 ft | 435 kts | 106° |
| 2026-05-07 18:30 | 5.23898 | 7.57857 | 34861 ft | 434 kts | 106° |
| 2026-05-07 18:30 | 5.21870 | 7.63600 | 34863 ft | 434 kts | 107° |
| 2026-05-07 18:31 | 5.19862 | 7.69288 | 34862 ft | 435 kts | 106° |
| 2026-05-07 18:31 | 5.17839 | 7.75018 | 34858 ft | 436 kts | 107° |
| 2026-05-07 18:32 | 5.15811 | 7.80764 | 34860 ft | 437 kts | 106° |
| 2026-05-07 18:32 | 5.13787 | 7.86495 | 34864 ft | 436 kts | 107° |
| 2026-05-07 18:33 | 5.11765 | 7.92213 | 34867 ft | 434 kts | 107° |
| 2026-05-07 18:33 | 5.09737 | 7.97920 | 34865 ft | 434 kts | 107° |
| 2026-05-07 18:34 | 5.07709 | 8.03636 | 34863 ft | 435 kts | 106° |
| 2026-05-07 18:34 | 5.05687 | 8.09359 | 34863 ft | 435 kts | 107° |
| 2026-05-07 18:35 | 5.03669 | 8.15076 | 34865 ft | 435 kts | 106° |
| 2026-05-07 18:35 | 5.01653 | 8.20784 | 34865 ft | 435 kts | 107° |
| 2026-05-07 18:36 | 4.99634 | 8.26498 | 34867 ft | 435 kts | 107° |
| 2026-05-07 18:36 | 4.97600 | 8.32212 | 34865 ft | 435 kts | 107° |
| 2026-05-07 18:37 | 4.95563 | 8.37925 | 34869 ft | 435 kts | 107° |
| 2026-05-07 18:37 | 4.93530 | 8.43638 | 34869 ft | 435 kts | 107° |
| 2026-05-07 18:38 | 4.91496 | 8.49355 | 34871 ft | 435 kts | 107° |
| 2026-05-07 18:38 | 4.89462 | 8.55078 | 34874 ft | 435 kts | 107° |
| 2026-05-07 18:39 | 4.87426 | 8.60799 | 34874 ft | 436 kts | 107° |
| 2026-05-07 18:39 | 4.85200 | 8.66462 | 34875 ft | 437 kts | 110° |
| 2026-05-07 18:40 | 4.82750 | 8.72095 | 34874 ft | 438 kts | 110° |
| 2026-05-07 18:40 | 4.80321 | 8.77707 | 34540 ft | 444 kts | 110° |
| 2026-05-07 18:40 | 4.79102 | 8.80564 | 34125 ft | 445 kts | 110° |
| 2026-05-07 18:41 | 4.77893 | 8.83415 | 33577 ft | 443 kts | 110° |
| 2026-05-07 18:41 | 4.76692 | 8.86254 | 32957 ft | 441 kts | 109° |
| 2026-05-07 18:41 | 4.75502 | 8.89073 | 32329 ft | 439 kts | 110° |
| 2026-05-07 18:41 | 4.74327 | 8.91855 | 31710 ft | 438 kts | 109° |
| 2026-05-07 18:42 | 4.73152 | 8.94673 | 31081 ft | 438 kts | 109° |
| 2026-05-07 18:42 | 4.72030 | 8.97508 | 30431 ft | 438 kts | 108° |
| 2026-05-07 18:42 | 4.70938 | 9.00363 | 29698 ft | 439 kts | 107° |
| 2026-05-07 18:42 | 4.69857 | 9.03220 | 28882 ft | 438 kts | 108° |
| 2026-05-07 18:43 | 4.68776 | 9.06068 | 28130 ft | 435 kts | 108° |
| 2026-05-07 18:43 | 4.67698 | 9.08886 | 27416 ft | 432 kts | 108° |
| 2026-05-07 18:43 | 4.66620 | 9.11681 | 26720 ft | 428 kts | 108° |
| 2026-05-07 18:43 | 4.65544 | 9.14453 | 26032 ft | 425 kts | 109° |
| 2026-05-07 18:44 | 4.64475 | 9.17203 | 25368 ft | 422 kts | 109° |
| 2026-05-07 18:44 | 4.63413 | 9.19931 | 24688 ft | 419 kts | 109° |
| 2026-05-07 18:44 | 4.62357 | 9.22645 | 24024 ft | 417 kts | 109° |
| 2026-05-07 18:44 | 4.61309 | 9.25342 | 23329 ft | 415 kts | 110° |
| 2026-05-07 18:45 | 4.60263 | 9.28029 | 22577 ft | 412 kts | 110° |
| 2026-05-07 18:45 | 4.59224 | 9.30698 | 21870 ft | 409 kts | 110° |
| 2026-05-07 18:45 | 4.58196 | 9.33339 | 21205 ft | 405 kts | 110° |
| 2026-05-07 18:45 | 4.57177 | 9.35953 | 20559 ft | 401 kts | 110° |
| 2026-05-07 18:46 | 4.56166 | 9.38545 | 19924 ft | 397 kts | 110° |
| 2026-05-07 18:46 | 4.55165 | 9.41116 | 19282 ft | 394 kts | 110° |
| 2026-05-07 18:46 | 4.54174 | 9.43662 | 18650 ft | 391 kts | 110° |
| 2026-05-07 18:46 | 4.53190 | 9.46190 | 18002 ft | 388 kts | 110° |
| 2026-05-07 18:47 | 4.52211 | 9.48702 | 17303 ft | 384 kts | 110° |
| 2026-05-07 18:47 | 4.51240 | 9.51186 | 16650 ft | 380 kts | 110° |
| 2026-05-07 18:47 | 4.50283 | 9.53630 | 16038 ft | 374 kts | 110° |
| 2026-05-07 18:47 | 4.49004 | 9.55878 | 15454 ft | 372 kts | 129° |
| 2026-05-07 18:48 | 4.47004 | 9.57496 | 14883 ft | 373 kts | 149° |
| 2026-05-07 18:48 | 4.44617 | 9.58530 | 14222 ft | 374 kts | 155° |
| 2026-05-07 18:48 | 4.42162 | 9.59388 | 13571 ft | 372 kts | 157° |
| 2026-05-07 18:48 | 4.39744 | 9.60189 | 12887 ft | 369 kts | 157° |
| 2026-05-07 18:49 | 4.37280 | 9.61000 | 12210 ft | 366 kts | 157° |
| 2026-05-07 18:49 | 4.34908 | 9.61787 | 11597 ft | 361 kts | 157° |
| 2026-05-07 18:49 | 4.32535 | 9.62589 | 10985 ft | 358 kts | 156° |
| 2026-05-07 18:49 | 4.30163 | 9.63409 | 10405 ft | 350 kts | 156° |
| 2026-05-07 18:50 | 4.27954 | 9.64176 | 10217 ft | 322 kts | 155° |
| 2026-05-07 18:50 | 4.25919 | 9.64885 | 10072 ft | 297 kts | 155° |
| 2026-05-07 18:50 | 4.24060 | 9.65537 | 9944 ft | 278 kts | 154° |
| 2026-05-07 18:50 | 4.22274 | 9.66175 | 9870 ft | 269 kts | 153° |
| 2026-05-07 18:51 | 4.20477 | 9.66830 | 9722 ft | 276 kts | 153° |
| 2026-05-07 18:51 | 4.18755 | 9.67610 | 9477 ft | 271 kts | 137° |
| 2026-05-07 18:51 | 4.17589 | 9.69008 | 9210 ft | 260 kts | 108° |
| 2026-05-07 18:51 | 4.17349 | 9.70767 | 8980 ft | 256 kts | 81° |
| 2026-05-07 18:52 | 4.17657 | 9.72512 | 8850 ft | 253 kts | 79° |
| 2026-05-07 18:52 | 4.17886 | 9.74250 | 8771 ft | 252 kts | 85° |
| 2026-05-07 18:52 | 4.17919 | 9.76015 | 8696 ft | 253 kts | 91° |
| 2026-05-07 18:52 | 4.17744 | 9.77781 | 8623 ft | 256 kts | 97° |
| 2026-05-07 18:53 | 4.17363 | 9.79520 | 8559 ft | 256 kts | 103° |
| 2026-05-07 18:53 | 4.16784 | 9.81225 | 8418 ft | 260 kts | 110° |
| 2026-05-07 18:53 | 4.16023 | 9.82871 | 8223 ft | 262 kts | 115° |
| 2026-05-07 18:53 | 4.15090 | 9.84449 | 8068 ft | 262 kts | 121° |
| 2026-05-07 18:54 | 4.14009 | 9.85918 | 7953 ft | 263 kts | 126° |
| 2026-05-07 18:54 | 4.12780 | 9.87279 | 7827 ft | 264 kts | 132° |
| 2026-05-07 18:54 | 4.11417 | 9.88516 | 7703 ft | 265 kts | 137° |
| 2026-05-07 18:54 | 4.09931 | 9.89622 | 7590 ft | 267 kts | 143° |
| 2026-05-07 18:55 | 4.08333 | 9.90588 | 7471 ft | 270 kts | 148° |
| 2026-05-07 18:55 | 4.06627 | 9.91400 | 7239 ft | 273 kts | 154° |
| 2026-05-07 18:55 | 4.04835 | 9.92037 | 6976 ft | 273 kts | 161° |
| 2026-05-07 18:55 | 4.02990 | 9.92483 | 6684 ft | 272 kts | 167° |
| 2026-05-07 18:56 | 4.01106 | 9.92743 | 6293 ft | 275 kts | 173° |
| 2026-05-07 18:56 | 3.99185 | 9.92814 | 5771 ft | 277 kts | 179° |
| 2026-05-07 18:56 | 3.97277 | 9.92685 | 5216 ft | 273 kts | 186° |
| 2026-05-07 18:56 | 3.95396 | 9.92348 | 4667 ft | 276 kts | 192° |
| 2026-05-07 18:57 | 3.93535 | 9.91801 | 3990 ft | 281 kts | 204° |
| 2026-05-07 18:57 | 3.91994 | 9.90619 | 3429 ft | 280 kts | 234° |
| 2026-05-07 18:57 | 3.91248 | 9.88912 | 3170 ft | 260 kts | 263° |
| 2026-05-07 18:57 | 3.91440 | 9.87202 | 2933 ft | 242 kts | 294° |
| 2026-05-07 18:58 | 3.92389 | 9.85879 | 2694 ft | 228 kts | 313° |
| 2026-05-07 18:58 | 3.93408 | 9.84746 | 2457 ft | 210 kts | 306° |
| 2026-05-07 18:58 | 3.94232 | 9.83610 | 2180 ft | 195 kts | 307° |
| 2026-05-07 18:58 | 3.95052 | 9.82654 | 2126 ft | 168 kts | 311° |
| 2026-05-07 18:59 | 3.95853 | 9.81853 | 2046 ft | 154 kts | 314° |
| 2026-05-07 18:59 | 3.96565 | 9.81083 | 1938 ft | 157 kts | 304° |
| 2026-05-07 18:59 | 3.97122 | 9.80121 | 1556 ft | 160 kts | 294° |
| 2026-05-07 18:59 | 3.97527 | 9.79102 | 1258 ft | 154 kts | 285° |
| 2026-05-07 19:00 | 3.97833 | 9.78087 | 1029 ft | 151 kts | 285° |
| 2026-05-07 19:00 | 3.98038 | 9.77426 | 902 ft | 149 kts | 285° |
| 2026-05-07 19:00 | 3.98366 | 9.76438 | 619 ft | 149 kts | 289° |
| 2026-05-07 19:00 | 3.98732 | 9.75511 | 460 ft | 140 kts | 295° |
| 2026-05-07 19:01 | 3.99207 | 9.74665 | 359 ft | 139 kts | 301° |
| 2026-05-07 19:01 | 3.99667 | 9.73800 | 226 ft | 144 kts | 298° |
| 2026-05-07 19:01 | 4.00128 | 9.72915 | 30 ft | 140 kts | 297° |
| 2026-05-07 19:01 | 4.00517 | 9.72141 | 31 ft | 92 kts | 297° |
| 2026-05-07 19:02 | 4.00699 | 9.71781 | 35 ft | 34 kts | 297° |
| 2026-05-07 19:02 | 4.00770 | 9.71639 | 37 ft | 19 kts | 297° |
| 2026-05-07 19:02 | 4.00831 | 9.71519 | 36 ft | 20 kts | 297° |
| 2026-05-07 19:02 | 4.00891 | 9.71402 | 36 ft | 17 kts | 296° |
| 2026-05-07 19:03 | 4.00927 | 9.71337 | 37 ft | 7 kts | 320° |
| 2026-05-07 19:03 | 4.00982 | 9.71331 | 37 ft | 10 kts | 16° |
| 2026-05-07 19:03 | 4.01042 | 9.71369 | 38 ft | 10 kts | 39° |
| 2026-05-07 19:03 | 4.01056 | 9.71433 | 38 ft | 10 kts | 115° |
| 2026-05-07 19:04 | 4.01027 | 9.71478 | 37 ft | 0 kts | 120° |
| 2026-05-07 19:04 | 4.01027 | 9.71479 | 37 ft | 0 kts | 120° |
| 2026-05-07 19:05 | 4.01014 | 9.71501 | 37 ft | 8 kts | 119° |
| 2026-05-07 19:06 | 4.01013 | 9.71547 | 37 ft | 6 kts | 57° |
| 2026-05-07 19:06 | 4.01092 | 9.71599 | 37 ft | 7 kts | 26° |
| 2026-05-07 19:06 | 4.01129 | 9.71617 | 37 ft | 6 kts | 26° |
| 2026-05-07 19:07 | 4.01166 | 9.71636 | 37 ft | 6 kts | 27° |
| 2026-05-07 19:07 | 4.01185 | 9.71648 | 37 ft | 1 kts | 49° |
| 2026-05-07 19:07 | 4.01190 | 9.71661 | 37 ft | 3 kts | 78° |
| 2026-05-07 19:07 | 4.01187 | 9.71671 | 37 ft | 2 kts | 116° |
| 2026-05-07 19:08 | 4.01179 | 9.71686 | 37 ft | 1 kts | 117° |
| 2026-05-07 19:08 | 4.01177 | 9.71689 | 37 ft | 0 kts | 117° |